Time;durP1;ratioP1;P1;durP2;ratioP2;P2;SDS_P1;SDS_P2;PMS_P1;PMS_P2;Temp;Humidity;BMP_temperature;BMP_pressure;BME280_temperature;BME280_humidity;BME280_pressure;Samples;Min_cycle;Max_cycle;Signal;HPM_P1;HPM_P2
2021/07/14 00:02:05;;;;;;;14.87;10.35;;;;;;;17.85;80.26;95552.80;1777478;81;21006;-58
2021/07/14 00:04:33;;;;;;;11.05;9.93;;;;;;;17.80;79.65;95555.30;1777676;80;21017;-58
2021/07/14 00:07:00;;;;;;;13.05;10.58;;;;;;;17.82;79.70;95553.44;1777737;81;21006;-58
2021/07/14 00:09:26;;;;;;;10.70;9.38;;;;;;;17.77;79.68;95546.08;1777335;80;21141;-58
2021/07/14 00:11:56;;;;;;;10.28;9.18;;;;;;;17.70;79.93;95557.03;1777413;81;21006;-58
2021/07/14 00:17:19;;;;;;;11.78;9.63;;;;;;;17.67;79.38;95551.84;1777664;81;21488;-59
2021/07/14 00:22:31;;;;;;;14.40;10.90;;;;;;;17.48;79.70;95559.83;1777833;80;21022;-58
2021/07/14 00:24:58;;;;;;;11.90;10.70;;;;;;;17.39;80.69;95560.27;1777406;81;21054;-58
2021/07/14 00:27:25;;;;;;;14.68;11.00;;;;;;;17.40;80.52;95554.47;1777842;80;20978;-59
2021/07/14 00:30:00;;;;;;;12.55;10.53;;;;;;;17.39;81.03;95557.61;1777773;81;21456;-58
2021/07/14 00:32:27;;;;;;;13.98;10.75;;;;;;;17.36;80.49;95559.09;1777792;80;21034;-58
2021/07/14 00:34:57;;;;;;;15.93;11.08;;;;;;;17.38;80.29;95567.00;1778043;81;20985;-59
2021/07/14 00:37:23;;;;;;;10.95;9.50;;;;;;;17.40;80.24;95559.33;1777749;81;21036;-59
2021/07/14 00:39:56;;;;;;;13.03;10.03;;;;;;;17.44;79.90;95560.07;1777941;80;20985;-58
2021/07/14 00:42:25;;;;;;;;;;;;;;;17.34;79.66;95557.39;1780416;81;21472;-58
2021/07/14 00:44:54;;;;;;;13.40;10.80;;;;;;;17.36;80.32;95566.20;1777450;80;20430;-58
2021/07/14 00:47:29;;;;;;;16.27;11.95;;;;;;;17.32;80.32;95565.95;1777823;80;20959;-58
2021/07/14 00:49:55;;;;;;;11.95;9.73;;;;;;;17.30;80.13;95564.20;1777933;81;21475;-59
2021/07/14 00:52:22;;;;;;;11.15;10.05;;;;;;;17.27;80.46;95566.16;1777314;81;21026;-58
2021/07/14 00:54:50;;;;;;;12.65;9.85;;;;;;;17.18;80.47;95560.76;1777509;81;21010;-58
2021/07/14 00:57:20;;;;;;;13.60;8.93;;;;;;;17.12;80.76;95558.38;1777460;80;21029;-58
2021/07/14 00:59:46;;;;;;;11.80;9.95;;;;;;;17.04;81.47;95556.53;1777854;80;21002;-58
2021/07/14 01:02:13;;;;;;;9.23;8.30;;;;;;;17.05;80.83;95560.92;1777887;81;21073;-58
2021/07/14 01:04:43;;;;;;;10.88;9.88;;;;;;;17.05;80.42;95559.11;1777830;81;20954;-58
2021/07/14 01:07:33;;;;;;;13.53;9.90;;;;;;;17.07;80.32;95555.06;1777691;81;21005;-58
2021/07/14 01:10:24;;;;;;;11.88;10.60;;;;;;;17.08;80.09;95555.45;1777671;80;21546;-58
2021/07/14 01:13:10;;;;;;;10.93;8.85;;;;;;;17.04;80.97;95551.20;1777748;80;21495;-58
2021/07/14 01:15:47;;;;;;;11.48;9.48;;;;;;;17.01;81.10;95556.64;1777748;81;21006;-59
2021/07/14 01:18:40;;;;;;;13.13;9.85;;;;;;;16.93;80.82;95560.13;1777807;80;21460;-58
2021/07/14 01:21:24;;;;;;;11.33;10.03;;;;;;;16.90;81.07;95559.80;1777689;81;21520;-58
2021/07/14 01:24:00;;;;;;;11.12;9.78;;;;;;;16.83;80.73;95562.32;1777458;81;21034;-58
2021/07/14 01:26:56;;;;;;;14.25;10.18;;;;;;;16.83;80.62;95564.55;1777372;81;21025;-59
2021/07/14 01:29:24;;;;;;;10.50;9.23;;;;;;;16.86;80.62;95565.73;1777903;80;21010;-58
2021/07/14 01:31:52;;;;;;;13.05;10.65;;;;;;;16.89;80.18;95571.41;1777866;80;20997;-58
2021/07/14 01:34:21;;;;;;;13.13;10.48;;;;;;;16.86;80.05;95570.20;1777769;80;21009;-58
2021/07/14 01:36:51;;;;;;;12.55;9.95;;;;;;;16.90;80.14;95573.59;1777725;80;20994;-58
2021/07/14 01:39:19;;;;;;;11.18;9.85;;;;;;;16.89;79.73;95578.54;1777645;81;21022;-61
2021/07/14 01:41:49;;;;;;;14.07;10.47;;;;;;;16.85;79.84;95578.64;1777552;80;21022;-58
2021/07/14 01:44:19;;;;;;;11.88;9.83;;;;;;;16.90;80.17;95574.92;1777816;80;21005;-58
2021/07/14 01:46:47;;;;;;;11.80;9.78;;;;;;;16.79;80.43;95572.27;1777720;81;21009;-58
2021/07/14 01:49:17;;;;;;;11.12;9.98;;;;;;;16.73;80.42;95573.84;1777178;80;21045;-58
2021/07/14 01:51:54;;;;;;;13.28;9.68;;;;;;;16.72;81.04;95576.56;1777685;80;21029;-58
2021/07/14 01:54:26;;;;;;;15.25;9.35;;;;;;;16.79;81.12;95575.41;1777789;80;21420;-58
2021/07/14 01:56:54;;;;;;;11.40;9.70;;;;;;;16.77;80.20;95573.23;1777778;80;21049;-59
2021/07/14 01:59:23;;;;;;;13.45;9.60;;;;;;;16.70;80.46;95578.42;1777987;80;21232;-58
2021/07/14 02:01:52;;;;;;;14.00;10.05;;;;;;;16.63;81.15;95583.13;1777589;81;21041;-58
2021/07/14 02:04:31;;;;;;;14.35;10.93;;;;;;;16.56;81.25;95587.87;1777849;81;21116;-58
2021/07/14 02:07:14;;;;;;;13.43;9.65;;;;;;;16.53;80.95;95575.13;1777671;80;21121;-59
2021/07/14 02:09:43;;;;;;;13.48;9.53;;;;;;;16.64;80.69;95588.87;1777527;80;21452;-58
2021/07/14 02:12:21;;;;;;;13.68;9.13;;;;;;;16.59;80.38;95590.40;1777622;80;21029;-58
2021/07/14 02:15:08;;;;;;;18.52;9.75;;;;;;;16.54;80.76;95592.86;1778028;80;21038;-58
2021/07/14 02:17:54;;;;;;;12.70;9.33;;;;;;;16.56;80.83;95590.53;1777980;80;21057;-58
2021/07/14 02:20:22;;;;;;;10.10;8.75;;;;;;;16.65;80.65;95588.79;1777768;81;21014;-58
2021/07/14 02:22:53;;;;;;;11.38;10.00;;;;;;;16.64;79.94;95591.54;1777716;81;20982;-58
2021/07/14 02:25:21;;;;;;;13.15;8.83;;;;;;;16.61;80.06;95592.53;1777761;80;21472;-58
2021/07/14 02:27:48;;;;;;;13.75;9.28;;;;;;;16.58;80.40;95585.12;1780630;80;21052;-58
2021/07/14 02:30:19;;;;;;;14.00;10.25;;;;;;;16.48;80.74;95581.11;1787545;80;21005;-58
2021/07/14 02:32:57;;;;;;;12.98;9.45;;;;;;;16.42;80.86;95587.58;1787723;80;21506;-58
2021/07/14 02:35:26;;;;;;;14.13;9.58;;;;;;;16.35;81.27;95581.63;1788038;80;21014;-58
2021/07/14 02:37:58;;;;;;;15.88;9.95;;;;;;;16.35;81.01;95580.77;1787791;80;21005;-58
2021/07/14 02:40:50;;;;;;;13.08;8.73;;;;;;;16.37;80.86;95587.76;1787719;80;21013;-58
2021/07/14 02:43:25;;;;;;;10.90;9.80;;;;;;;16.39;80.73;95589.90;1783366;80;21033;-58
2021/07/14 02:45:47;;;;;;;15.15;9.75;;;;;;;16.37;80.85;95586.89;1786148;80;21105;-59
2021/07/14 02:48:15;;;;;;;12.20;8.98;;;;;;;16.32;80.86;95583.56;1787827;80;21036;-58
2021/07/14 02:50:43;;;;;;;11.40;9.85;;;;;;;16.30;80.66;95593.40;1787520;80;21089;-59
2021/07/14 02:53:14;;;;;;;10.60;8.65;;;;;;;16.29;80.44;95587.22;1787693;80;21493;-58
2021/07/14 02:55:43;;;;;;;12.05;8.90;;;;;;;16.37;80.60;95590.42;1787747;80;21021;-58
2021/07/14 02:58:12;;;;;;;12.18;10.00;;;;;;;16.37;79.99;95598.88;1787592;80;21017;-58
2021/07/14 03:00:41;;;;;;;14.07;10.18;;;;;;;16.34;80.08;95608.33;1787741;80;21029;-58
2021/07/14 03:03:10;;;;;;;12.07;9.70;;;;;;;16.31;80.08;95599.15;1787552;80;21053;-58
2021/07/14 03:05:39;;;;;;;11.35;10.20;;;;;;;16.29;80.12;95595.67;1787660;80;20985;-58
2021/07/14 03:08:12;;;;;;;11.45;10.25;;;;;;;16.22;80.61;95592.38;1787491;80;21059;-59
2021/07/14 03:10:35;;;;;;;11.22;10.03;;;;;;;16.12;80.99;95592.36;1786517;80;21006;-58
2021/07/14 03:13:04;;;;;;;12.47;10.15;;;;;;;16.05;81.58;95593.53;1787345;80;21493;-58
2021/07/14 03:15:32;;;;;;;16.30;10.32;;;;;;;16.08;81.28;95586.30;1787739;80;21017;-58
2021/07/14 03:18:00;;;;;;;14.45;10.35;;;;;;;16.08;81.00;95588.11;1752216;80;20973;-58
2021/07/14 03:20:28;;;;;;;12.45;9.83;;;;;;;16.07;81.29;95595.20;1787670;80;21491;-58
2021/07/14 03:22:56;;;;;;;13.53;10.65;;;;;;;16.08;80.77;95589.44;1787541;80;21053;-58
2021/07/14 03:25:23;;;;;;;11.90;10.45;;;;;;;16.10;80.86;95591.55;1787522;80;21048;-58
2021/07/14 03:27:52;;;;;;;11.33;9.38;;;;;;;16.09;81.59;95592.02;1787601;80;21041;-58
2021/07/14 03:30:22;;;;;;;11.85;10.08;;;;;;;16.10;81.73;95582.23;1787797;80;21045;-58
2021/07/14 03:32:49;;;;;;;14.70;10.18;;;;;;;16.13;81.27;95583.46;1787620;80;21480;-58
2021/07/14 03:35:17;;;;;;;11.05;9.83;;;;;;;16.12;81.63;95579.05;1787449;80;20982;-58
2021/07/14 03:37:48;;;;;;;12.23;10.00;;;;;;;16.17;81.80;95577.92;1787665;80;21045;-58
2021/07/14 03:40:16;;;;;;;12.68;9.75;;;;;;;16.20;81.58;95580.92;1787345;80;21021;-58
2021/07/14 03:42:44;;;;;;;10.75;8.55;;;;;;;16.21;82.31;95579.55;1787805;80;21494;-58
2021/07/14 03:45:10;;;;;;;14.93;10.68;;;;;;;16.30;81.75;95582.75;1787642;80;21009;-58
2021/07/14 03:47:40;;;;;;;11.95;9.65;;;;;;;16.35;81.80;95580.77;1787704;80;21041;-58
2021/07/14 03:50:09;;;;;;;13.45;9.55;;;;;;;16.41;81.59;95580.05;1787842;80;21058;-59
2021/07/14 03:52:36;;;;;;;12.93;9.88;;;;;;;16.44;81.93;95585.25;1787773;80;21495;-58
2021/07/14 03:55:05;;;;;;;12.47;10.35;;;;;;;16.57;82.14;95596.25;1787581;80;20998;-58
2021/07/14 03:57:32;;;;;;;11.73;10.53;;;;;;;16.71;82.24;95589.02;1787743;80;21467;-58
2021/07/14 03:59:59;;;;;;;12.55;10.72;;;;;;;16.81;81.85;95584.20;1787417;80;21025;-58
2021/07/14 04:02:26;;;;;;;15.53;10.38;;;;;;;16.95;81.92;95588.91;1787659;80;21020;-58
2021/07/14 04:04:53;;;;;;;12.47;10.20;;;;;;;17.09;81.58;95583.85;1787848;80;21006;-58
2021/07/14 04:07:27;;;;;;;14.45;9.20;;;;;;;17.19;80.80;95586.51;1787777;80;21499;-58
2021/07/14 04:09:53;;;;;;;11.90;9.13;;;;;;;17.21;80.53;95576.64;1786929;80;21006;-59
2021/07/14 04:12:20;;;;;;;11.43;9.05;;;;;;;17.22;81.63;95580.17;1787531;80;21036;-59
2021/07/14 04:14:47;;;;;;;14.18;9.18;;;;;;;17.34;81.53;95579.63;1787692;80;21053;-60
2021/07/14 04:17:14;;;;;;;11.43;9.73;;;;;;;17.38;81.03;95573.67;1787847;80;21459;-58
2021/07/14 04:19:41;;;;;;;18.30;9.88;;;;;;;17.46;81.01;95576.84;1787529;80;21052;-58
2021/07/14 04:22:10;;;;;;;14.07;9.68;;;;;;;17.64;81.51;95568.45;1787768;80;21048;-58
2021/07/14 04:24:38;;;;;;;10.78;9.13;;;;;;;17.84;80.96;95577.78;1787446;80;21049;-58
2021/07/14 04:27:05;;;;;;;12.65;9.63;;;;;;;17.93;79.88;95583.99;1787734;80;20966;-58
2021/07/14 04:29:31;;;;;;;11.90;9.33;;;;;;;18.09;79.37;95572.58;1794139;80;21064;-58
2021/07/14 04:31:58;;;;;;;10.65;9.53;;;;;;;18.09;79.37;95572.58;1796160;80;21001;-59
2021/07/14 04:34:25;;;;;;;11.00;9.60;;;;;;;18.11;78.59;95564.02;1796007;80;20992;-58
2021/07/14 04:36:52;;;;;;;13.68;9.85;;;;;;;18.30;78.97;95572.02;1796270;79;21005;-58
2021/07/14 04:39:19;;;;;;;11.45;9.58;;;;;;;18.45;78.50;95569.92;1796253;80;21498;-58
2021/07/14 04:41:46;;;;;;;11.95;9.25;;;;;;;18.59;78.52;95567.88;1796289;79;21494;-58
2021/07/14 04:44:18;;;;;;;12.85;9.68;;;;;;;18.76;78.61;95564.38;1796011;79;20993;-59
2021/07/14 04:46:43;;;;;;;10.30;9.15;;;;;;;18.95;77.98;95565.62;1795732;80;21055;-58
2021/07/14 04:49:11;;;;;;;14.05;10.25;;;;;;;19.00;76.52;95564.45;1796410;80;21520;-58
2021/07/14 04:51:38;;;;;;;11.40;10.05;;;;;;;19.09;76.51;95560.42;1796397;80;21501;-59
2021/07/14 04:54:04;;;;;;;12.13;10.32;;;;;;;19.20;75.64;95563.41;1796423;80;21013;-58
2021/07/14 04:56:34;;;;;;;11.33;10.18;;;;;;;19.34;75.88;95565.81;1795727;79;21032;-58
2021/07/14 04:59:01;;;;;;;11.95;10.23;;;;;;;19.41;75.01;95569.41;1796016;80;21001;-59
2021/07/14 05:01:27;;;;;;;11.28;10.18;;;;;;;19.46;75.26;95567.36;1796382;80;20981;-59
2021/07/14 05:03:53;;;;;;;11.53;10.05;;;;;;;19.52;75.18;95572.84;1796324;80;21005;-60
2021/07/14 05:06:20;;;;;;;11.78;10.65;;;;;;;19.52;74.94;95566.63;1796264;80;20977;-58
2021/07/14 05:08:46;;;;;;;13.70;10.55;;;;;;;19.55;76.39;95571.81;1796397;80;21502;-58
2021/07/14 05:11:14;;;;;;;17.15;11.20;;;;;;;19.62;75.94;95575.41;1796337;80;21023;-59
2021/07/14 05:13:41;;;;;;;14.45;10.03;;;;;;;19.70;74.87;95569.66;1796613;80;21472;-58
2021/07/14 05:16:08;;;;;;;15.10;10.23;;;;;;;19.79;74.40;95576.34;1796261;79;21438;-58
2021/07/14 05:18:36;;;;;;;15.13;10.68;;;;;;;19.87;74.13;95570.94;1796197;79;20997;-58
2021/07/14 05:21:03;;;;;;;12.30;11.10;;;;;;;19.96;74.12;95579.41;1796282;79;20981;-59
2021/07/14 05:23:30;;;;;;;13.80;10.82;;;;;;;20.05;74.51;95573.54;1796075;80;21029;-58
2021/07/14 05:25:58;;;;;;;19.75;12.40;;;;;;;20.17;74.55;95576.02;1795884;80;21055;-58
2021/07/14 05:28:25;;;;;;;17.25;12.15;;;;;;;20.26;74.49;95571.45;1795895;80;21021;-59
2021/07/14 05:30:52;;;;;;;12.88;11.68;;;;;;;20.37;74.94;95573.53;1796204;80;21005;-58
2021/07/14 05:33:20;;;;;;;14.03;10.63;;;;;;;20.47;74.28;95572.91;1796014;80;21025;-59
2021/07/14 05:35:47;;;;;;;12.60;10.00;;;;;;;20.62;74.03;95569.84;1796033;80;21083;-59
2021/07/14 05:38:19;;;;;;;19.82;10.13;;;;;;;20.73;72.07;95564.70;1796314;80;21451;-59
2021/07/14 05:40:46;;;;;;;12.95;10.90;;;;;;;20.87;72.04;95570.59;1795509;80;21020;-59
2021/07/14 05:43:12;;;;;;;15.65;10.58;;;;;;;20.97;70.65;95566.89;1796221;80;21040;-58
2021/07/14 05:45:39;;;;;;;21.97;11.30;;;;;;;21.13;70.43;95560.12;1796359;80;21474;-58
2021/07/14 05:48:06;;;;;;;21.07;11.57;;;;;;;21.24;70.06;95568.84;1796275;80;20970;-58
2021/07/14 05:50:33;;;;;;;16.05;11.18;;;;;;;;;;1796441;80;20973;-58
2021/07/14 05:52:59;;;;;;;19.23;10.80;;;;;;;21.57;70.04;95562.78;1796196;80;21526;-59
2021/07/14 05:55:26;;;;;;;18.40;10.45;;;;;;;21.76;70.29;95557.10;1796106;79;21009;-58
2021/07/14 05:57:54;;;;;;;16.15;10.98;;;;;;;21.92;69.26;95554.77;1796360;80;21044;-59
2021/07/14 06:00:21;;;;;;;21.35;11.08;;;;;;;22.04;68.66;95549.47;1796248;80;21502;-59
2021/07/14 06:02:48;;;;;;;20.85;11.28;;;;;;;22.14;68.71;95549.74;1796556;80;20999;-59
2021/07/14 06:05:14;;;;;;;15.05;11.20;;;;;;;22.20;66.94;95548.51;1796461;80;21009;-58
2021/07/14 06:07:41;;;;;;;17.10;11.85;;;;;;;22.31;68.07;95547.34;1796154;80;21005;-58
2021/07/14 06:10:09;;;;;;;14.03;11.93;;;;;;;22.41;67.75;95550.29;1796326;80;21037;-58
2021/07/14 06:12:35;;;;;;;13.20;11.80;;;;;;;22.52;66.80;95552.25;1796320;80;21483;-58
2021/07/14 06:15:03;;;;;;;17.27;12.50;;;;;;;22.58;65.35;95551.38;1796578;80;20977;-58
2021/07/14 06:17:29;;;;;;;13.70;12.10;;;;;;;22.67;66.71;95552.09;1796368;80;21041;-59
2021/07/14 06:19:56;;;;;;;13.22;11.97;;;;;;;22.80;66.25;95546.73;1796322;80;21586;-59
2021/07/14 06:22:23;;;;;;;15.45;11.48;;;;;;;22.94;65.84;95543.61;1796323;80;21005;-59
2021/07/14 06:24:49;;;;;;;17.25;11.95;;;;;;;23.03;65.72;95540.30;1796681;80;20974;-59
2021/07/14 06:27:16;;;;;;;18.35;12.45;;;;;;;23.13;65.58;95541.39;1796335;79;20969;-59
2021/07/14 06:29:42;;;;;;;14.65;12.93;;;;;;;23.23;65.70;95542.47;1796054;80;21001;-59
2021/07/14 06:32:09;;;;;;;14.23;12.73;;;;;;;23.37;65.85;95548.75;1796341;79;21498;-59
2021/07/14 06:34:35;;;;;;;15.32;13.72;;;;;;;23.49;66.02;95547.41;1796549;80;20997;-59
2021/07/14 06:37:02;;;;;;;14.00;12.70;;;;;;;23.56;65.17;95539.73;1796417;80;20978;-59
2021/07/14 06:39:29;;;;;;;14.00;12.50;;;;;;;23.63;64.43;95542.86;1796053;79;21017;-59
2021/07/14 06:41:56;;;;;;;13.95;12.55;;;;;;;23.64;64.91;95538.72;1796281;80;21470;-59
2021/07/14 06:44:23;;;;;;;15.53;12.53;;;;;;;23.70;64.65;95547.70;1796419;80;20997;-59
2021/07/14 06:46:49;;;;;;;13.83;12.30;;;;;;;23.71;64.24;95548.09;1796036;80;21522;-59
2021/07/14 06:49:15;;;;;;;16.77;12.05;;;;;;;23.78;64.74;95547.67;1796237;79;20961;-59
2021/07/14 06:51:44;;;;;;;14.10;12.68;;;;;;;23.84;64.27;95543.17;1793575;80;21467;-58
2021/07/14 06:54:10;;;;;;;13.53;12.33;;;;;;;23.92;64.71;95544.36;1796461;79;21080;-59
2021/07/14 06:56:37;;;;;;;16.73;12.98;;;;;;;23.93;64.14;95547.42;1795785;80;21041;-59
2021/07/14 06:59:03;;;;;;;14.40;12.90;;;;;;;23.94;63.70;95545.61;1796043;80;21021;-59
2021/07/14 07:01:30;;;;;;;14.83;12.93;;;;;;;24.01;64.35;95541.47;1796440;79;21036;-58
2021/07/14 07:03:56;;;;;;;15.98;13.25;;;;;;;24.13;64.62;95535.19;1796338;80;20954;-59
2021/07/14 07:06:24;;;;;;;13.90;12.40;;;;;;;24.26;65.00;95535.64;1796425;80;21001;-59
2021/07/14 07:08:51;;;;;;;14.90;12.65;;;;;;;24.31;64.76;95541.06;1796642;79;21001;-59
2021/07/14 07:11:17;;;;;;;13.60;12.40;;;;;;;24.35;64.25;95539.02;1796208;79;21004;-60
2021/07/14 07:13:44;;;;;;;14.63;13.13;;;;;;;24.39;63.51;95534.63;1796348;80;21510;-59
2021/07/14 07:16:10;;;;;;;13.28;12.07;;;;;;;24.49;63.88;95528.56;1796413;80;21041;-59
2021/07/14 07:18:37;;;;;;;15.23;13.80;;;;;;;24.60;64.14;95532.19;1796012;79;21029;-59
2021/07/14 07:21:07;;;;;;;17.45;13.48;;;;;;;24.64;62.90;95528.76;1796395;80;21040;-59
2021/07/14 07:23:32;;;;;;;13.60;12.15;;;;;;;24.72;63.13;95523.67;1796284;80;20985;-59
2021/07/14 07:25:58;;;;;;;14.18;12.78;;;;;;;24.80;62.50;95523.94;1796322;80;21053;-59
2021/07/14 07:28:30;;;;;;;13.50;12.30;;;;;;;24.84;62.48;95528.59;1795973;80;20985;-60
2021/07/14 07:30:53;;;;;;;14.15;12.73;;;;;;;24.84;62.17;95529.95;1787095;80;21464;-59
2021/07/14 07:33:22;;;;;;;15.10;13.40;;;;;;;24.96;63.12;95531.71;1787591;80;20985;-59
2021/07/14 07:35:48;;;;;;;14.35;13.00;;;;;;;25.00;61.51;95539.95;1787703;80;21514;-59
2021/07/14 07:38:15;;;;;;;14.00;12.80;;;;;;;25.07;61.53;95536.77;1787451;80;21521;-59
2021/07/14 07:40:41;;;;;;;14.90;12.68;;;;;;;25.14;61.52;95536.67;1787866;80;21496;-59
2021/07/14 07:43:08;;;;;;;14.38;13.03;;;;;;;25.28;62.08;95532.45;1787316;80;20990;-59
2021/07/14 07:45:34;;;;;;;14.53;13.20;;;;;;;25.40;61.87;95530.61;1787689;80;21001;-59
2021/07/14 07:48:01;;;;;;;14.15;12.75;;;;;;;25.40;61.68;95535.55;1787861;80;20969;-59
2021/07/14 07:50:27;;;;;;;17.10;12.15;;;;;;;25.47;62.15;95536.76;1787724;80;21459;-59
2021/07/14 07:52:54;;;;;;;14.70;13.30;;;;;;;25.55;62.21;95536.19;1787155;80;21006;-58
2021/07/14 07:55:21;;;;;;;14.28;13.00;;;;;;;25.66;62.06;95528.08;1787747;80;21001;-59
2021/07/14 07:57:47;;;;;;;14.75;13.32;;;;;;;25.80;62.00;95530.16;1787736;80;21013;-59
2021/07/14 08:00:19;;;;;;;15.80;12.33;;;;;;;25.88;60.86;95529.95;1787672;80;21045;-59
2021/07/14 08:02:49;;;;;;;17.80;13.65;;;;;;;26.03;61.45;95534.63;1787786;80;21009;-59
2021/07/14 08:05:16;;;;;;;13.25;11.90;;;;;;;26.13;61.04;95532.00;1787757;80;21045;-59
2021/07/14 08:07:43;;;;;;;14.30;12.70;;;;;;;26.15;60.47;95529.19;1787641;80;21060;-59
2021/07/14 08:10:11;;;;;;;14.58;13.03;;;;;;;26.24;60.13;95528.44;1787949;80;21046;-59
2021/07/14 08:12:38;;;;;;;13.90;12.55;;;;;;;26.36;60.69;95528.79;1787489;80;21543;-59
2021/07/14 08:15:07;;;;;;;14.45;13.08;;;;;;;26.38;59.28;95534.05;1787686;80;20993;-59
2021/07/14 08:17:34;;;;;;;15.00;13.08;;;;;;;26.47;60.99;95534.16;1787806;80;20993;-59
2021/07/14 08:20:00;;;;;;;15.23;13.75;;;;;;;26.58;60.46;95529.23;1787426;80;21018;-59
2021/07/14 08:22:27;;;;;;;13.95;12.65;;;;;;;26.71;60.41;95528.59;1787885;80;21021;-59
2021/07/14 08:24:53;;;;;;;14.60;13.20;;;;;;;26.75;60.70;95534.09;1787454;80;21504;-59
2021/07/14 08:27:24;;;;;;;16.23;13.38;;;;;;;26.89;60.01;95519.91;1787660;80;21582;-59
2021/07/14 08:29:48;;;;;;;15.35;13.68;;;;;;;27.04;59.74;95525.84;1791160;80;21005;-59
2021/07/14 08:32:14;;;;;;;14.13;12.75;;;;;;;27.13;59.13;95519.15;1796279;80;21037;-59
2021/07/14 08:34:41;;;;;;;13.15;11.85;;;;;;;27.24;59.77;95516.05;1796239;80;21040;-59
2021/07/14 08:37:07;;;;;;;13.35;11.88;;;;;;;27.35;59.36;95514.13;1796248;79;20989;-59
2021/07/14 08:39:35;;;;;;;14.87;13.48;;;;;;;27.37;58.24;95517.58;1796252;80;21052;-59
2021/07/14 08:42:04;;;;;;;13.93;12.63;;;;;;;27.44;58.50;95521.95;1796315;80;20985;-62
2021/07/14 08:44:30;;;;;;;15.35;13.80;;;;;;;27.51;58.11;95529.05;1796283;80;21454;-59
2021/07/14 08:46:58;;;;;;;15.40;13.78;;;;;;;27.61;58.07;95524.05;1795948;80;20997;-59
2021/07/14 08:49:25;;;;;;;15.08;13.45;;;;;;;27.75;58.05;95528.27;1796456;80;20977;-58
2021/07/14 08:51:53;;;;;;;16.70;14.38;;;;;;;27.89;59.50;95525.70;1796273;80;21521;-59
2021/07/14 08:54:20;;;;;;;16.55;13.98;;;;;;;28.01;57.62;95531.40;1796563;80;21013;-59
2021/07/14 08:56:50;;;;;;;15.15;13.58;;;;;;;28.09;57.55;95536.14;1796145;80;21509;-59
2021/07/14 08:59:19;;;;;;;14.98;13.03;;;;;;;28.18;57.22;95530.41;1796286;79;21029;-59
2021/07/14 09:01:47;;;;;;;15.43;12.95;;;;;;;28.33;57.44;95534.95;1796273;80;20997;-59
2021/07/14 09:04:14;;;;;;;16.95;13.20;;;;;;;28.45;56.14;95529.77;1796384;79;21059;-59
2021/07/14 09:06:44;;;;;;;14.87;13.38;;;;;;;28.42;57.16;95532.23;1796108;80;21486;-59
2021/07/14 09:09:10;;;;;;;15.75;13.83;;;;;;;28.56;57.45;95522.88;1795809;80;20993;-59
2021/07/14 09:11:59;;;;;;;14.98;13.58;;;;;;;28.75;57.88;95527.97;1796234;79;21024;-59
2021/07/14 09:14:36;;;;;;;15.13;13.32;;;;;;;28.90;57.05;95531.50;1771038;80;20981;-59
2021/07/14 09:17:22;;;;;;;14.78;13.40;;;;;;;28.85;54.79;95532.42;1796080;79;21001;-59
2021/07/14 09:19:50;;;;;;;14.85;13.22;;;;;;;29.01;55.52;95536.43;1787931;80;21044;-59
2021/07/14 09:22:31;;;;;;;16.25;12.93;;;;;;;28.98;54.48;95531.26;1796311;79;21064;-59
2021/07/14 09:24:57;;;;;;;14.35;12.95;;;;;;;28.90;53.28;95535.57;1796145;79;21001;-59
2021/07/14 09:27:35;;;;;;;14.33;12.93;;;;;;;28.90;55.37;95532.86;1796133;79;21543;-60
2021/07/14 09:30:18;;;;;;;16.23;13.65;;;;;;;29.15;55.46;95533.80;1787157;80;20998;-59
2021/07/14 09:32:53;;;;;;;14.78;13.48;;;;;;;29.34;53.96;95531.07;1777605;80;21064;-59
2021/07/14 09:35:39;;;;;;;14.90;13.38;;;;;;;29.48;52.24;95536.06;1777711;81;21002;-59
2021/07/14 09:38:25;;;;;;;15.95;13.00;;;;;;;29.59;54.95;95536.90;1777482;80;21120;-59
2021/07/14 09:41:05;;;;;;;15.63;14.13;;;;;;;29.66;54.03;95535.31;1777475;81;21060;-59
2021/07/14 09:43:41;;;;;;;15.28;13.62;;;;;;;29.90;54.70;95525.30;1777514;80;20998;-59
2021/07/14 09:46:12;;;;;;;14.50;13.13;;;;;;;30.06;53.95;95524.66;1777296;80;20982;-59
2021/07/14 09:48:43;;;;;;;16.07;13.48;;;;;;;30.18;53.64;95527.55;1777174;81;21030;-59
2021/07/14 09:51:19;;;;;;;17.60;13.78;;;;;;;30.25;52.90;95530.05;1777368;81;21041;-59
2021/07/14 09:53:54;;;;;;;15.48;13.60;;;;;;;30.31;51.94;95523.14;1777628;81;20966;-59
2021/07/14 09:56:27;;;;;;;15.58;13.98;;;;;;;30.33;52.33;95525.21;1777696;80;20974;-59
2021/07/14 09:59:07;;;;;;;15.55;13.95;;;;;;;30.45;52.41;95521.28;1777400;81;21022;-59
2021/07/14 10:01:42;;;;;;;18.10;14.00;;;;;;;30.43;51.05;95519.20;1777700;80;21003;-59
2021/07/14 10:04:13;;;;;;;14.20;12.73;;;;;;;30.55;51.56;95520.71;1777201;81;20994;-59
2021/07/14 10:06:40;;;;;;;14.00;12.58;;;;;;;30.74;51.81;95520.22;1777218;81;21014;-59
2021/07/14 10:09:06;;;;;;;15.40;11.60;;;;;;;30.90;51.93;95512.77;1777782;81;20998;-59
2021/07/14 10:11:33;;;;;;;14.30;12.90;;;;;;;31.04;50.29;95513.05;1777503;80;21463;-58
2021/07/14 10:14:07;;;;;;;15.23;12.75;;;;;;;30.98;48.89;95511.48;1777652;81;21013;-59
2021/07/14 10:16:40;;;;;;;12.65;11.48;;;;;;;31.18;51.04;95506.72;1777780;80;21487;-59
2021/07/14 10:19:12;;;;;;;14.80;11.83;;;;;;;31.37;51.35;95505.66;1777817;81;21025;-59
2021/07/14 10:21:41;;;;;;;;;;;;;;;31.55;49.15;95507.02;1780267;80;21017;-59
2021/07/14 10:24:13;;;;;;;12.70;11.68;;;;;;;31.50;48.98;95505.28;1777779;81;20132;-59
2021/07/14 10:26:42;;;;;;;;;;;;;;;31.56;48.57;95501.93;1780294;80;20963;-61
2021/07/14 10:29:09;;;;;;;15.63;11.80;;;;;;;31.56;48.69;95495.11;1777610;80;20466;-59
2021/07/14 10:31:37;;;;;;;15.38;11.08;;;;;;;31.69;48.93;95495.53;1777595;80;21057;-59
2021/07/14 10:34:06;;;;;;;11.70;10.60;;;;;;;31.79;48.70;95493.55;1777760;81;20978;-59
2021/07/14 10:36:36;;;;;;;12.33;10.80;;;;;;;31.90;49.17;95501.47;1777821;80;21014;-59
2021/07/14 10:39:13;;;;;;;11.43;10.30;;;;;;;31.93;47.22;95502.13;1777876;81;21424;-59
2021/07/14 10:41:41;;;;;;;12.35;11.05;;;;;;;31.99;46.00;95498.29;1777755;80;21436;-59
2021/07/14 10:44:09;;;;;;;11.28;10.28;;;;;;;32.17;47.67;95500.08;1778350;80;21466;-59
2021/07/14 10:46:39;;;;;;;14.13;10.98;;;;;;;32.37;45.88;95498.80;1777907;81;21026;-59
2021/07/14 10:49:09;;;;;;;11.22;10.23;;;;;;;32.53;46.50;95500.75;1777733;80;20985;-59
2021/07/14 10:51:39;;;;;;;11.85;10.55;;;;;;;32.53;44.67;95505.73;1777901;80;21049;-59
2021/07/14 10:54:11;;;;;;;11.68;10.58;;;;;;;32.50;43.46;95509.28;1778071;81;21049;-59
2021/07/14 10:56:48;;;;;;;11.15;10.05;;;;;;;32.59;43.79;95512.39;1777978;81;20982;-59
2021/07/14 10:59:15;;;;;;;11.43;10.32;;;;;;;32.67;43.95;95504.22;1777461;81;21086;-59
2021/07/14 11:01:51;;;;;;;11.48;10.10;;;;;;;32.67;42.19;95510.19;1777787;81;21006;-59
2021/07/14 11:04:33;;;;;;;11.90;10.65;;;;;;;32.75;43.48;95506.11;1777854;80;20997;-59
2021/07/14 11:07:07;;;;;;;10.65;9.75;;;;;;;32.83;41.42;95508.84;1777924;80;20978;-59
2021/07/14 11:09:38;;;;;;;11.12;10.03;;;;;;;32.94;40.81;95505.81;1777823;80;21471;-59
2021/07/14 11:12:10;;;;;;;12.58;10.30;;;;;;;33.07;42.80;95505.86;1777879;81;21056;-59
2021/07/14 11:14:41;;;;;;;11.48;10.35;;;;;;;33.15;43.03;95505.34;1777146;81;21009;-59
2021/07/14 11:17:13;;;;;;;12.55;10.38;;;;;;;33.07;42.75;95502.61;1777763;80;21057;-59
2021/07/14 11:19:53;;;;;;;12.85;10.00;;;;;;;33.22;44.71;95508.26;1778115;80;20970;-59
2021/07/14 11:22:40;;;;;;;11.73;10.13;;;;;;;33.33;40.14;95505.69;1777794;80;20994;-59
2021/07/14 11:25:21;;;;;;;13.72;10.03;;;;;;;33.35;39.74;95499.54;1777768;80;20993;-59
2021/07/14 11:27:53;;;;;;;11.40;10.20;;;;;;;33.42;36.37;95492.88;1777897;81;21018;-59
2021/07/14 11:30:25;;;;;;;10.70;9.60;;;;;;;33.52;44.36;95496.30;1777504;80;21523;-59
2021/07/14 11:32:57;;;;;;;11.73;10.05;;;;;;;33.50;43.11;95499.19;1778058;81;21018;-60
2021/07/14 11:35:45;;;;;;;10.93;9.48;;;;;;;33.50;40.05;95496.45;1777945;81;21468;-59
2021/07/14 11:38:22;;;;;;;10.28;9.30;;;;;;;33.45;39.41;95496.63;1777752;80;20997;-59
2021/07/14 11:40:56;;;;;;;14.13;9.50;;;;;;;33.44;40.61;95495.78;1778011;80;21014;-59